sensor_id;sensor_type;location;lat;lon;timestamp;P1;durP1;ratioP1;P2;durP2;ratioP2
62927;SDS011;51070;52.236;-0.892;2023-05-16T00:01:12;3.20;;;1.60;;
62927;SDS011;51070;52.236;-0.892;2023-05-16T00:03:38;4.80;;;2.10;;
62927;SDS011;51070;52.236;-0.892;2023-05-16T00:06:03;3.20;;;1.50;;
62927;SDS011;51070;52.236;-0.892;2023-05-16T00:08:29;5.20;;;1.50;;
62927;SDS011;51070;52.236;-0.892;2023-05-16T00:10:55;5.20;;;1.50;;
62927;SDS011;51070;52.236;-0.892;2023-05-16T00:13:20;4.60;;;1.50;;
62927;SDS011;51070;52.236;-0.892;2023-05-16T00:15:49;7.30;;;2.20;;
62927;SDS011;51070;52.236;-0.892;2023-05-16T00:18:19;7.60;;;2.30;;
62927;SDS011;51070;52.236;-0.892;2023-05-16T00:20:46;7.60;;;2.10;;
62927;SDS011;51070;52.236;-0.892;2023-05-16T00:23:13;4.40;;;1.70;;
62927;SDS011;51070;52.236;-0.892;2023-05-16T00:25:39;3.30;;;1.40;;
62927;SDS011;51070;52.236;-0.892;2023-05-16T00:28:05;5.50;;;1.50;;
62927;SDS011;51070;52.236;-0.892;2023-05-16T00:30:32;6.60;;;2.50;;
62927;SDS011;51070;52.236;-0.892;2023-05-16T00:32:57;6.70;;;2.40;;
62927;SDS011;51070;52.236;-0.892;2023-05-16T00:35:23;7.80;;;2.50;;
62927;SDS011;51070;52.236;-0.892;2023-05-16T00:37:49;8.60;;;2.50;;
62927;SDS011;51070;52.236;-0.892;2023-05-16T00:40:15;5.60;;;2.50;;
62927;SDS011;51070;52.236;-0.892;2023-05-16T00:42:41;6.50;;;2.30;;
62927;SDS011;51070;52.236;-0.892;2023-05-16T00:45:07;5.80;;;1.80;;
62927;SDS011;51070;52.236;-0.892;2023-05-16T00:47:34;8.40;;;2.30;;
62927;SDS011;51070;52.236;-0.892;2023-05-16T00:50:00;5.70;;;2.30;;
62927;SDS011;51070;52.236;-0.892;2023-05-16T00:52:27;5.30;;;1.90;;
62927;SDS011;51070;52.236;-0.892;2023-05-16T00:54:52;8.60;;;2.40;;
62927;SDS011;51070;52.236;-0.892;2023-05-16T00:57:18;7.70;;;2.30;;
62927;SDS011;51070;52.236;-0.892;2023-05-16T00:59:44;5.30;;;2.20;;
62927;SDS011;51070;52.236;-0.892;2023-05-16T01:02:11;6.90;;;2.20;;
62927;SDS011;51070;52.236;-0.892;2023-05-16T01:04:38;8.40;;;2.30;;
62927;SDS011;51070;52.236;-0.892;2023-05-16T01:07:04;3.50;;;1.60;;
62927;SDS011;51070;52.236;-0.892;2023-05-16T01:09:30;8.70;;;2.20;;
62927;SDS011;51070;52.236;-0.892;2023-05-16T01:14:59;7.20;;;2.30;;
62927;SDS011;51070;52.236;-0.892;2023-05-16T01:17:44;9.10;;;2.30;;
62927;SDS011;51070;52.236;-0.892;2023-05-16T01:20:32;7.20;;;2.20;;
62927;SDS011;51070;52.236;-0.892;2023-05-16T01:28:36;3.60;;;1.50;;
62927;SDS011;51070;52.236;-0.892;2023-05-16T01:31:02;4.90;;;1.60;;
62927;SDS011;51070;52.236;-0.892;2023-05-16T01:33:28;4.90;;;2.00;;
62927;SDS011;51070;52.236;-0.892;2023-05-16T01:35:55;4.50;;;1.70;;
62927;SDS011;51070;52.236;-0.892;2023-05-16T01:38:26;7.10;;;1.70;;
62927;SDS011;51070;52.236;-0.892;2023-05-16T01:41:02;5.10;;;2.00;;
62927;SDS011;51070;52.236;-0.892;2023-05-16T01:43:41;4.60;;;1.70;;
62927;SDS011;51070;52.236;-0.892;2023-05-16T01:46:13;6.00;;;2.10;;
62927;SDS011;51070;52.236;-0.892;2023-05-16T01:51:49;5.40;;;1.50;;
62927;SDS011;51070;52.236;-0.892;2023-05-16T01:54:18;6.30;;;2.20;;
62927;SDS011;51070;52.236;-0.892;2023-05-16T01:56:50;4.30;;;1.70;;
62927;SDS011;51070;52.236;-0.892;2023-05-16T01:59:18;4.30;;;1.50;;
62927;SDS011;51070;52.236;-0.892;2023-05-16T02:01:46;6.10;;;1.40;;
62927;SDS011;51070;52.236;-0.892;2023-05-16T02:04:11;4.70;;;1.20;;
62927;SDS011;51070;52.236;-0.892;2023-05-16T02:06:39;7.50;;;1.80;;
62927;SDS011;51070;52.236;-0.892;2023-05-16T02:09:05;5.90;;;1.20;;
62927;SDS011;51070;52.236;-0.892;2023-05-16T02:11:30;8.60;;;2.00;;
62927;SDS011;51070;52.236;-0.892;2023-05-16T02:13:56;8.30;;;2.20;;
62927;SDS011;51070;52.236;-0.892;2023-05-16T02:16:22;7.90;;;2.10;;
62927;SDS011;51070;52.236;-0.892;2023-05-16T02:18:47;5.80;;;1.70;;
62927;SDS011;51070;52.236;-0.892;2023-05-16T02:21:12;6.80;;;2.60;;
62927;SDS011;51070;52.236;-0.892;2023-05-16T02:23:38;8.00;;;2.20;;
62927;SDS011;51070;52.236;-0.892;2023-05-16T02:26:03;6.70;;;2.00;;
62927;SDS011;51070;52.236;-0.892;2023-05-16T02:28:29;6.80;;;2.30;;
62927;SDS011;51070;52.236;-0.892;2023-05-16T02:31:03;5.10;;;2.10;;
62927;SDS011;51070;52.236;-0.892;2023-05-16T02:33:29;9.80;;;2.50;;
62927;SDS011;51070;52.236;-0.892;2023-05-16T02:35:54;6.60;;;2.00;;
62927;SDS011;51070;52.236;-0.892;2023-05-16T02:38:20;5.10;;;1.70;;
62927;SDS011;51070;52.236;-0.892;2023-05-16T02:40:46;8.20;;;2.00;;
62927;SDS011;51070;52.236;-0.892;2023-05-16T02:43:12;5.40;;;1.80;;
62927;SDS011;51070;52.236;-0.892;2023-05-16T02:45:38;6.10;;;2.00;;
62927;SDS011;51070;52.236;-0.892;2023-05-16T02:48:03;7.10;;;1.60;;
62927;SDS011;51070;52.236;-0.892;2023-05-16T02:50:29;4.00;;;1.70;;
62927;SDS011;51070;52.236;-0.892;2023-05-16T02:52:55;7.00;;;1.90;;
62927;SDS011;51070;52.236;-0.892;2023-05-16T02:55:23;6.10;;;2.00;;
62927;SDS011;51070;52.236;-0.892;2023-05-16T02:57:50;5.80;;;2.20;;
62927;SDS011;51070;52.236;-0.892;2023-05-16T03:00:16;8.00;;;2.60;;
62927;SDS011;51070;52.236;-0.892;2023-05-16T03:02:42;2.00;;;1.80;;
62927;SDS011;51070;52.236;-0.892;2023-05-16T03:05:09;7.60;;;2.00;;
62927;SDS011;51070;52.236;-0.892;2023-05-16T03:07:35;5.90;;;1.90;;
62927;SDS011;51070;52.236;-0.892;2023-05-16T03:10:02;6.50;;;2.20;;
62927;SDS011;51070;52.236;-0.892;2023-05-16T03:12:27;5.80;;;2.00;;
62927;SDS011;51070;52.236;-0.892;2023-05-16T03:14:53;7.10;;;2.00;;
62927;SDS011;51070;52.236;-0.892;2023-05-16T03:17:18;9.80;;;2.50;;
62927;SDS011;51070;52.236;-0.892;2023-05-16T03:19:44;5.20;;;1.90;;
62927;SDS011;51070;52.236;-0.892;2023-05-16T03:22:10;4.20;;;2.20;;
62927;SDS011;51070;52.236;-0.892;2023-05-16T03:24:35;6.20;;;2.20;;
62927;SDS011;51070;52.236;-0.892;2023-05-16T03:27:00;12.50;;;2.30;;
62927;SDS011;51070;52.236;-0.892;2023-05-16T03:29:27;2.90;;;1.50;;
62927;SDS011;51070;52.236;-0.892;2023-05-16T03:31:53;12.70;;;2.50;;
62927;SDS011;51070;52.236;-0.892;2023-05-16T03:34:19;7.50;;;2.40;;
62927;SDS011;51070;52.236;-0.892;2023-05-16T03:36:46;11.80;;;4.30;;
62927;SDS011;51070;52.236;-0.892;2023-05-16T03:39:12;11.60;;;2.50;;
62927;SDS011;51070;52.236;-0.892;2023-05-16T03:41:38;3.20;;;1.30;;
62927;SDS011;51070;52.236;-0.892;2023-05-16T03:44:03;8.80;;;2.60;;
62927;SDS011;51070;52.236;-0.892;2023-05-16T03:46:29;5.70;;;2.00;;
62927;SDS011;51070;52.236;-0.892;2023-05-16T03:48:54;4.10;;;1.80;;
62927;SDS011;51070;52.236;-0.892;2023-05-16T03:51:20;8.70;;;2.30;;
62927;SDS011;51070;52.236;-0.892;2023-05-16T03:53:45;6.00;;;2.60;;
62927;SDS011;51070;52.236;-0.892;2023-05-16T03:56:11;5.40;;;1.80;;
62927;SDS011;51070;52.236;-0.892;2023-05-16T03:58:36;6.60;;;2.10;;
62927;SDS011;51070;52.236;-0.892;2023-05-16T04:01:02;7.70;;;2.20;;
62927;SDS011;51070;52.236;-0.892;2023-05-16T04:03:27;9.90;;;2.50;;
62927;SDS011;51070;52.236;-0.892;2023-05-16T04:05:54;6.00;;;2.30;;
62927;SDS011;51070;52.236;-0.892;2023-05-16T04:08:20;8.20;;;2.20;;
62927;SDS011;51070;52.236;-0.892;2023-05-16T04:10:46;7.10;;;2.30;;
62927;SDS011;51070;52.236;-0.892;2023-05-16T04:13:11;5.20;;;2.00;;
62927;SDS011;51070;52.236;-0.892;2023-05-16T04:15:37;7.50;;;2.40;;
62927;SDS011;51070;52.236;-0.892;2023-05-16T04:18:02;4.90;;;1.60;;
62927;SDS011;51070;52.236;-0.892;2023-05-16T04:20:29;5.90;;;2.00;;
62927;SDS011;51070;52.236;-0.892;2023-05-16T04:22:54;7.40;;;2.20;;
62927;SDS011;51070;52.236;-0.892;2023-05-16T04:25:20;4.10;;;1.70;;
62927;SDS011;51070;52.236;-0.892;2023-05-16T04:27:45;7.30;;;1.90;;
62927;SDS011;51070;52.236;-0.892;2023-05-16T04:30:11;7.90;;;2.60;;
62927;SDS011;51070;52.236;-0.892;2023-05-16T04:32:38;5.50;;;1.90;;
62927;SDS011;51070;52.236;-0.892;2023-05-16T04:35:04;6.30;;;2.30;;
62927;SDS011;51070;52.236;-0.892;2023-05-16T04:37:33;4.90;;;1.90;;
62927;SDS011;51070;52.236;-0.892;2023-05-16T04:40:00;8.20;;;2.30;;
62927;SDS011;51070;52.236;-0.892;2023-05-16T04:42:25;5.90;;;1.70;;
62927;SDS011;51070;52.236;-0.892;2023-05-16T04:44:51;4.40;;;2.00;;
62927;SDS011;51070;52.236;-0.892;2023-05-16T04:47:16;5.90;;;2.00;;
62927;SDS011;51070;52.236;-0.892;2023-05-16T04:49:42;7.40;;;2.50;;
62927;SDS011;51070;52.236;-0.892;2023-05-16T04:52:07;7.10;;;2.40;;
62927;SDS011;51070;52.236;-0.892;2023-05-16T04:54:33;4.50;;;1.70;;
62927;SDS011;51070;52.236;-0.892;2023-05-16T04:56:58;6.70;;;2.50;;
62927;SDS011;51070;52.236;-0.892;2023-05-16T04:59:24;5.10;;;1.70;;
62927;SDS011;51070;52.236;-0.892;2023-05-16T05:01:49;5.50;;;1.70;;
62927;SDS011;51070;52.236;-0.892;2023-05-16T05:04:15;7.20;;;2.00;;
62927;SDS011;51070;52.236;-0.892;2023-05-16T05:06:41;5.40;;;2.00;;
62927;SDS011;51070;52.236;-0.892;2023-05-16T05:09:07;7.90;;;2.00;;
62927;SDS011;51070;52.236;-0.892;2023-05-16T05:11:33;6.00;;;2.10;;
62927;SDS011;51070;52.236;-0.892;2023-05-16T05:13:59;4.60;;;1.60;;
62927;SDS011;51070;52.236;-0.892;2023-05-16T05:16:25;5.30;;;1.90;;
62927;SDS011;51070;52.236;-0.892;2023-05-16T05:18:51;8.50;;;2.00;;
62927;SDS011;51070;52.236;-0.892;2023-05-16T05:21:16;6.90;;;2.00;;
62927;SDS011;51070;52.236;-0.892;2023-05-16T05:23:44;4.70;;;2.20;;
62927;SDS011;51070;52.236;-0.892;2023-05-16T05:26:10;5.40;;;2.10;;
62927;SDS011;51070;52.236;-0.892;2023-05-16T05:28:36;5.00;;;1.80;;
62927;SDS011;51070;52.236;-0.892;2023-05-16T05:31:02;5.20;;;2.20;;
62927;SDS011;51070;52.236;-0.892;2023-05-16T05:33:32;6.30;;;2.10;;
62927;SDS011;51070;52.236;-0.892;2023-05-16T05:35:57;9.90;;;2.00;;
62927;SDS011;51070;52.236;-0.892;2023-05-16T05:38:23;6.80;;;2.10;;
62927;SDS011;51070;52.236;-0.892;2023-05-16T05:40:49;6.40;;;1.80;;
62927;SDS011;51070;52.236;-0.892;2023-05-16T05:43:15;6.90;;;1.90;;
62927;SDS011;51070;52.236;-0.892;2023-05-16T05:45:41;8.50;;;1.80;;
62927;SDS011;51070;52.236;-0.892;2023-05-16T05:48:07;6.90;;;2.00;;
62927;SDS011;51070;52.236;-0.892;2023-05-16T05:50:32;4.30;;;1.80;;
62927;SDS011;51070;52.236;-0.892;2023-05-16T05:52:58;5.10;;;1.90;;
62927;SDS011;51070;52.236;-0.892;2023-05-16T05:55:23;5.50;;;1.40;;
62927;SDS011;51070;52.236;-0.892;2023-05-16T05:57:49;4.80;;;1.30;;
62927;SDS011;51070;52.236;-0.892;2023-05-16T06:00:14;7.60;;;1.90;;
62927;SDS011;51070;52.236;-0.892;2023-05-16T06:02:40;5.80;;;1.30;;
62927;SDS011;51070;52.236;-0.892;2023-05-16T06:05:05;5.10;;;1.90;;
62927;SDS011;51070;52.236;-0.892;2023-05-16T06:07:31;6.60;;;2.00;;
62927;SDS011;51070;52.236;-0.892;2023-05-16T06:09:57;12.00;;;2.60;;
62927;SDS011;51070;52.236;-0.892;2023-05-16T06:12:24;5.80;;;1.90;;
62927;SDS011;51070;52.236;-0.892;2023-05-16T06:14:49;3.90;;;1.40;;
62927;SDS011;51070;52.236;-0.892;2023-05-16T06:17:14;5.70;;;1.70;;
62927;SDS011;51070;52.236;-0.892;2023-05-16T06:19:40;6.60;;;1.50;;
62927;SDS011;51070;52.236;-0.892;2023-05-16T06:22:05;9.00;;;2.40;;
62927;SDS011;51070;52.236;-0.892;2023-05-16T06:24:31;5.70;;;1.90;;
62927;SDS011;51070;52.236;-0.892;2023-05-16T06:26:56;7.20;;;2.00;;
62927;SDS011;51070;52.236;-0.892;2023-05-16T06:29:22;5.90;;;1.90;;
62927;SDS011;51070;52.236;-0.892;2023-05-16T06:31:48;6.20;;;1.90;;
62927;SDS011;51070;52.236;-0.892;2023-05-16T06:34:13;5.70;;;1.60;;
62927;SDS011;51070;52.236;-0.892;2023-05-16T06:36:38;8.00;;;2.10;;
62927;SDS011;51070;52.236;-0.892;2023-05-16T06:39:04;6.80;;;2.10;;
62927;SDS011;51070;52.236;-0.892;2023-05-16T06:41:29;5.00;;;1.60;;
62927;SDS011;51070;52.236;-0.892;2023-05-16T06:43:55;6.40;;;2.20;;
62927;SDS011;51070;52.236;-0.892;2023-05-16T06:46:20;5.50;;;1.60;;
62927;SDS011;51070;52.236;-0.892;2023-05-16T06:48:46;4.20;;;1.60;;
62927;SDS011;51070;52.236;-0.892;2023-05-16T06:51:11;5.80;;;1.60;;
62927;SDS011;51070;52.236;-0.892;2023-05-16T06:53:37;6.30;;;2.00;;
62927;SDS011;51070;52.236;-0.892;2023-05-16T06:56:02;4.30;;;1.80;;
62927;SDS011;51070;52.236;-0.892;2023-05-16T06:58:28;6.20;;;2.00;;
62927;SDS011;51070;52.236;-0.892;2023-05-16T07:00:53;5.80;;;1.80;;
62927;SDS011;51070;52.236;-0.892;2023-05-16T07:03:19;7.00;;;1.50;;
62927;SDS011;51070;52.236;-0.892;2023-05-16T07:05:45;4.80;;;1.60;;
62927;SDS011;51070;52.236;-0.892;2023-05-16T07:08:11;5.10;;;1.80;;
62927;SDS011;51070;52.236;-0.892;2023-05-16T07:10:37;5.40;;;1.60;;
62927;SDS011;51070;52.236;-0.892;2023-05-16T07:13:03;6.40;;;2.10;;
62927;SDS011;51070;52.236;-0.892;2023-05-16T07:15:29;4.70;;;1.90;;
62927;SDS011;51070;52.236;-0.892;2023-05-16T07:17:55;5.80;;;1.80;;
62927;SDS011;51070;52.236;-0.892;2023-05-16T07:20:21;5.40;;;1.70;;
62927;SDS011;51070;52.236;-0.892;2023-05-16T07:22:47;3.90;;;1.60;;
62927;SDS011;51070;52.236;-0.892;2023-05-16T07:25:12;3.70;;;1.40;;
62927;SDS011;51070;52.236;-0.892;2023-05-16T07:27:39;6.00;;;1.90;;
62927;SDS011;51070;52.236;-0.892;2023-05-16T07:30:10;3.20;;;1.30;;
62927;SDS011;51070;52.236;-0.892;2023-05-16T07:32:36;4.80;;;1.70;;
62927;SDS011;51070;52.236;-0.892;2023-05-16T07:35:02;4.60;;;1.40;;
62927;SDS011;51070;52.236;-0.892;2023-05-16T07:37:28;4.20;;;1.70;;
62927;SDS011;51070;52.236;-0.892;2023-05-16T07:39:54;4.70;;;1.70;;
62927;SDS011;51070;52.236;-0.892;2023-05-16T07:42:19;5.70;;;1.60;;
62927;SDS011;51070;52.236;-0.892;2023-05-16T07:44:45;6.60;;;1.80;;
62927;SDS011;51070;52.236;-0.892;2023-05-16T07:47:11;5.40;;;1.80;;
62927;SDS011;51070;52.236;-0.892;2023-05-16T07:49:37;6.40;;;1.80;;
62927;SDS011;51070;52.236;-0.892;2023-05-16T07:52:02;5.10;;;1.80;;
62927;SDS011;51070;52.236;-0.892;2023-05-16T07:54:28;6.70;;;2.10;;
62927;SDS011;51070;52.236;-0.892;2023-05-16T07:56:53;6.20;;;1.80;;
62927;SDS011;51070;52.236;-0.892;2023-05-16T07:59:19;8.70;;;1.90;;
62927;SDS011;51070;52.236;-0.892;2023-05-16T08:01:44;5.20;;;1.80;;
62927;SDS011;51070;52.236;-0.892;2023-05-16T08:04:10;6.00;;;1.50;;
62927;SDS011;51070;52.236;-0.892;2023-05-16T08:06:36;3.30;;;1.90;;
62927;SDS011;51070;52.236;-0.892;2023-05-16T08:09:01;6.00;;;1.50;;
62927;SDS011;51070;52.236;-0.892;2023-05-16T08:11:27;4.50;;;1.90;;
62927;SDS011;51070;52.236;-0.892;2023-05-16T08:13:52;3.40;;;1.50;;
62927;SDS011;51070;52.236;-0.892;2023-05-16T08:16:18;3.80;;;1.60;;
62927;SDS011;51070;52.236;-0.892;2023-05-16T08:18:43;5.20;;;2.00;;
62927;SDS011;51070;52.236;-0.892;2023-05-16T08:21:08;5.40;;;1.80;;
62927;SDS011;51070;52.236;-0.892;2023-05-16T08:23:34;3.50;;;1.50;;
62927;SDS011;51070;52.236;-0.892;2023-05-16T08:26:00;6.80;;;1.70;;
62927;SDS011;51070;52.236;-0.892;2023-05-16T08:28:27;4.80;;;2.00;;
62927;SDS011;51070;52.236;-0.892;2023-05-16T08:30:53;5.30;;;1.70;;
62927;SDS011;51070;52.236;-0.892;2023-05-16T08:33:18;6.00;;;1.60;;
62927;SDS011;51070;52.236;-0.892;2023-05-16T08:35:45;8.30;;;2.00;;
62927;SDS011;51070;52.236;-0.892;2023-05-16T08:38:10;3.10;;;1.50;;
62927;SDS011;51070;52.236;-0.892;2023-05-16T08:40:36;3.80;;;1.30;;
62927;SDS011;51070;52.236;-0.892;2023-05-16T08:43:02;6.50;;;1.50;;
62927;SDS011;51070;52.236;-0.892;2023-05-16T08:45:29;3.10;;;1.20;;
62927;SDS011;51070;52.236;-0.892;2023-05-16T08:47:55;3.40;;;1.40;;
62927;SDS011;51070;52.236;-0.892;2023-05-16T08:50:21;5.20;;;1.40;;
62927;SDS011;51070;52.236;-0.892;2023-05-16T08:52:50;3.20;;;1.50;;
62927;SDS011;51070;52.236;-0.892;2023-05-16T08:55:16;4.00;;;1.70;;
62927;SDS011;51070;52.236;-0.892;2023-05-16T08:57:44;4.30;;;2.10;;
62927;SDS011;51070;52.236;-0.892;2023-05-16T09:00:10;5.40;;;1.90;;
62927;SDS011;51070;52.236;-0.892;2023-05-16T09:02:40;4.40;;;1.70;;
62927;SDS011;51070;52.236;-0.892;2023-05-16T09:05:13;3.50;;;1.40;;
62927;SDS011;51070;52.236;-0.892;2023-05-16T09:07:39;4.20;;;1.60;;
62927;SDS011;51070;52.236;-0.892;2023-05-16T09:10:06;4.70;;;2.00;;
62927;SDS011;51070;52.236;-0.892;2023-05-16T09:12:33;3.60;;;1.80;;
62927;SDS011;51070;52.236;-0.892;2023-05-16T09:15:00;4.60;;;1.60;;
62927;SDS011;51070;52.236;-0.892;2023-05-16T09:17:33;3.80;;;1.60;;
62927;SDS011;51070;52.236;-0.892;2023-05-16T09:20:06;4.90;;;1.40;;
62927;SDS011;51070;52.236;-0.892;2023-05-16T09:22:33;8.70;;;1.70;;
62927;SDS011;51070;52.236;-0.892;2023-05-16T09:24:59;4.20;;;1.90;;
62927;SDS011;51070;52.236;-0.892;2023-05-16T09:27:24;5.90;;;2.20;;
62927;SDS011;51070;52.236;-0.892;2023-05-16T09:29:50;4.20;;;1.60;;
62927;SDS011;51070;52.236;-0.892;2023-05-16T09:32:16;3.30;;;1.40;;
62927;SDS011;51070;52.236;-0.892;2023-05-16T09:34:42;5.30;;;1.60;;
62927;SDS011;51070;52.236;-0.892;2023-05-16T09:39:35;4.60;;;2.20;;
62927;SDS011;51070;52.236;-0.892;2023-05-16T09:42:01;4.70;;;1.40;;
62927;SDS011;51070;52.236;-0.892;2023-05-16T09:44:26;4.70;;;1.50;;
62927;SDS011;51070;52.236;-0.892;2023-05-16T09:46:55;2.80;;;1.30;;
62927;SDS011;51070;52.236;-0.892;2023-05-16T09:49:20;6.10;;;1.80;;
62927;SDS011;51070;52.236;-0.892;2023-05-16T09:51:46;5.10;;;1.70;;
62927;SDS011;51070;52.236;-0.892;2023-05-16T09:54:12;5.00;;;1.80;;
62927;SDS011;51070;52.236;-0.892;2023-05-16T09:56:47;6.40;;;1.80;;
62927;SDS011;51070;52.236;-0.892;2023-05-16T09:59:15;3.90;;;1.50;;
62927;SDS011;51070;52.236;-0.892;2023-05-16T10:01:41;3.10;;;1.70;;
62927;SDS011;51070;52.236;-0.892;2023-05-16T10:04:07;4.20;;;1.60;;
62927;SDS011;51070;52.236;-0.892;2023-05-16T10:06:38;5.90;;;1.50;;
62927;SDS011;51070;52.236;-0.892;2023-05-16T10:09:05;3.40;;;1.60;;
62927;SDS011;51070;52.236;-0.892;2023-05-16T10:11:32;4.70;;;1.80;;
62927;SDS011;51070;52.236;-0.892;2023-05-16T10:13:57;5.40;;;1.70;;
62927;SDS011;51070;52.236;-0.892;2023-05-16T10:16:23;7.00;;;1.90;;
62927;SDS011;51070;52.236;-0.892;2023-05-16T10:18:50;3.30;;;1.30;;
62927;SDS011;51070;52.236;-0.892;2023-05-16T10:21:17;3.50;;;1.40;;
62927;SDS011;51070;52.236;-0.892;2023-05-16T10:23:46;7.00;;;1.80;;
62927;SDS011;51070;52.236;-0.892;2023-05-16T10:26:13;4.60;;;2.00;;
62927;SDS011;51070;52.236;-0.892;2023-05-16T10:28:40;3.50;;;1.40;;
62927;SDS011;51070;52.236;-0.892;2023-05-16T10:31:06;3.20;;;1.50;;
62927;SDS011;51070;52.236;-0.892;2023-05-16T10:33:34;7.90;;;2.30;;
62927;SDS011;51070;52.236;-0.892;2023-05-16T10:36:00;6.10;;;2.20;;
62927;SDS011;51070;52.236;-0.892;2023-05-16T10:38:27;4.90;;;1.70;;
62927;SDS011;51070;52.236;-0.892;2023-05-16T10:40:54;6.50;;;3.70;;
62927;SDS011;51070;52.236;-0.892;2023-05-16T10:43:27;6.00;;;3.00;;
62927;SDS011;51070;52.236;-0.892;2023-05-16T10:48:35;6.30;;;2.70;;
62927;SDS011;51070;52.236;-0.892;2023-05-16T10:51:03;6.10;;;2.50;;
62927;SDS011;51070;52.236;-0.892;2023-05-16T10:53:53;5.90;;;2.90;;
62927;SDS011;51070;52.236;-0.892;2023-05-16T10:56:22;6.40;;;4.20;;
62927;SDS011;51070;52.236;-0.892;2023-05-16T10:58:49;4.40;;;2.60;;
62927;SDS011;51070;52.236;-0.892;2023-05-16T11:04:18;5.10;;;2.70;;
62927;SDS011;51070;52.236;-0.892;2023-05-16T11:11:51;4.30;;;2.40;;
62927;SDS011;51070;52.236;-0.892;2023-05-16T11:16:59;7.80;;;2.70;;
62927;SDS011;51070;52.236;-0.892;2023-05-16T11:19:49;7.00;;;3.00;;
62927;SDS011;51070;52.236;-0.892;2023-05-16T11:22:29;7.10;;;2.80;;
62927;SDS011;51070;52.236;-0.892;2023-05-16T11:25:08;4.80;;;2.70;;
62927;SDS011;51070;52.236;-0.892;2023-05-16T11:27:35;7.40;;;3.40;;
62927;SDS011;51070;52.236;-0.892;2023-05-16T11:30:12;7.40;;;3.50;;
62927;SDS011;51070;52.236;-0.892;2023-05-16T11:32:43;6.50;;;3.50;;
62927;SDS011;51070;52.236;-0.892;2023-05-16T11:35:11;6.80;;;3.50;;
62927;SDS011;51070;52.236;-0.892;2023-05-16T11:37:39;8.90;;;4.00;;
62927;SDS011;51070;52.236;-0.892;2023-05-16T11:40:06;6.30;;;3.30;;
62927;SDS011;51070;52.236;-0.892;2023-05-16T11:42:37;6.60;;;3.30;;
62927;SDS011;51070;52.236;-0.892;2023-05-16T11:45:07;7.00;;;3.60;;
62927;SDS011;51070;52.236;-0.892;2023-05-16T11:47:35;8.60;;;3.70;;
62927;SDS011;51070;52.236;-0.892;2023-05-16T11:50:09;9.60;;;4.20;;
62927;SDS011;51070;52.236;-0.892;2023-05-16T11:52:38;9.00;;;3.90;;
62927;SDS011;51070;52.236;-0.892;2023-05-16T11:55:04;6.90;;;3.70;;
62927;SDS011;51070;52.236;-0.892;2023-05-16T11:57:31;7.00;;;3.90;;
62927;SDS011;51070;52.236;-0.892;2023-05-16T12:00:04;7.80;;;4.10;;
62927;SDS011;51070;52.236;-0.892;2023-05-16T12:02:38;7.00;;;4.20;;
62927;SDS011;51070;52.236;-0.892;2023-05-16T12:05:09;9.20;;;5.30;;
62927;SDS011;51070;52.236;-0.892;2023-05-16T12:07:36;12.00;;;8.00;;
62927;SDS011;51070;52.236;-0.892;2023-05-16T12:10:05;14.80;;;10.10;;
62927;SDS011;51070;52.236;-0.892;2023-05-16T12:12:33;14.40;;;10.20;;
62927;SDS011;51070;52.236;-0.892;2023-05-16T12:15:00;9.30;;;5.10;;
62927;SDS011;51070;52.236;-0.892;2023-05-16T12:17:27;10.00;;;6.10;;
62927;SDS011;51070;52.236;-0.892;2023-05-16T12:19:53;8.40;;;4.30;;
62927;SDS011;51070;52.236;-0.892;2023-05-16T12:22:19;9.90;;;5.30;;
62927;SDS011;51070;52.236;-0.892;2023-05-16T12:24:44;8.50;;;4.70;;
62927;SDS011;51070;52.236;-0.892;2023-05-16T12:27:10;10.00;;;4.60;;
62927;SDS011;51070;52.236;-0.892;2023-05-16T12:29:36;8.20;;;4.40;;
62927;SDS011;51070;52.236;-0.892;2023-05-16T12:32:02;9.70;;;4.90;;
62927;SDS011;51070;52.236;-0.892;2023-05-16T12:34:28;8.60;;;4.20;;
62927;SDS011;51070;52.236;-0.892;2023-05-16T12:36:54;7.00;;;4.40;;
62927;SDS011;51070;52.236;-0.892;2023-05-16T12:39:20;10.30;;;4.90;;
62927;SDS011;51070;52.236;-0.892;2023-05-16T12:41:49;8.40;;;4.50;;
62927;SDS011;51070;52.236;-0.892;2023-05-16T12:44:16;11.90;;;4.80;;
62927;SDS011;51070;52.236;-0.892;2023-05-16T12:46:48;9.60;;;4.60;;
62927;SDS011;51070;52.236;-0.892;2023-05-16T12:49:19;9.10;;;4.60;;
62927;SDS011;51070;52.236;-0.892;2023-05-16T12:51:49;7.70;;;4.50;;
62927;SDS011;51070;52.236;-0.892;2023-05-16T12:54:16;6.50;;;4.60;;
62927;SDS011;51070;52.236;-0.892;2023-05-16T12:56:43;7.00;;;4.40;;
62927;SDS011;51070;52.236;-0.892;2023-05-16T12:59:09;7.00;;;4.50;;
62927;SDS011;51070;52.236;-0.892;2023-05-16T13:01:36;7.80;;;4.50;;
62927;SDS011;51070;52.236;-0.892;2023-05-16T13:04:02;10.60;;;4.40;;
62927;SDS011;51070;52.236;-0.892;2023-05-16T13:06:28;8.40;;;4.80;;
62927;SDS011;51070;52.236;-0.892;2023-05-16T13:08:55;12.40;;;7.00;;
62927;SDS011;51070;52.236;-0.892;2023-05-16T13:11:21;10.30;;;5.40;;
62927;SDS011;51070;52.236;-0.892;2023-05-16T13:13:46;9.30;;;5.80;;
62927;SDS011;51070;52.236;-0.892;2023-05-16T13:16:12;8.90;;;5.60;;
62927;SDS011;51070;52.236;-0.892;2023-05-16T13:18:37;12.80;;;6.00;;
62927;SDS011;51070;52.236;-0.892;2023-05-16T13:21:02;8.40;;;5.40;;
62927;SDS011;51070;52.236;-0.892;2023-05-16T13:23:28;9.60;;;6.10;;
62927;SDS011;51070;52.236;-0.892;2023-05-16T13:25:55;16.10;;;10.20;;
62927;SDS011;51070;52.236;-0.892;2023-05-16T13:28:20;16.10;;;10.10;;
62927;SDS011;51070;52.236;-0.892;2023-05-16T13:30:46;13.50;;;9.40;;
62927;SDS011;51070;52.236;-0.892;2023-05-16T13:33:11;8.00;;;6.00;;
62927;SDS011;51070;52.236;-0.892;2023-05-16T13:35:37;8.60;;;5.20;;
62927;SDS011;51070;52.236;-0.892;2023-05-16T13:38:02;8.00;;;5.00;;
62927;SDS011;51070;52.236;-0.892;2023-05-16T13:40:28;7.10;;;4.40;;
62927;SDS011;51070;52.236;-0.892;2023-05-16T13:42:54;7.50;;;5.10;;
62927;SDS011;51070;52.236;-0.892;2023-05-16T13:45:20;8.50;;;4.60;;
62927;SDS011;51070;52.236;-0.892;2023-05-16T13:47:46;9.00;;;4.60;;
62927;SDS011;51070;52.236;-0.892;2023-05-16T13:50:11;9.20;;;4.80;;
62927;SDS011;51070;52.236;-0.892;2023-05-16T13:52:37;9.10;;;4.60;;
62927;SDS011;51070;52.236;-0.892;2023-05-16T13:55:03;10.50;;;4.90;;
62927;SDS011;51070;52.236;-0.892;2023-05-16T13:57:29;11.50;;;6.90;;
62927;SDS011;51070;52.236;-0.892;2023-05-16T13:59:55;13.40;;;8.40;;
62927;SDS011;51070;52.236;-0.892;2023-05-16T14:02:21;12.20;;;7.60;;
62927;SDS011;51070;52.236;-0.892;2023-05-16T14:04:47;15.70;;;9.60;;
62927;SDS011;51070;52.236;-0.892;2023-05-16T14:07:12;9.10;;;4.80;;
62927;SDS011;51070;52.236;-0.892;2023-05-16T14:09:38;9.00;;;4.10;;
62927;SDS011;51070;52.236;-0.892;2023-05-16T14:12:06;9.50;;;5.50;;
62927;SDS011;51070;52.236;-0.892;2023-05-16T14:14:33;9.90;;;4.80;;
62927;SDS011;51070;52.236;-0.892;2023-05-16T14:16:59;9.70;;;4.40;;
62927;SDS011;51070;52.236;-0.892;2023-05-16T14:19:24;10.10;;;4.20;;
62927;SDS011;51070;52.236;-0.892;2023-05-16T14:21:50;12.50;;;4.30;;
62927;SDS011;51070;52.236;-0.892;2023-05-16T14:24:15;11.10;;;5.30;;
62927;SDS011;51070;52.236;-0.892;2023-05-16T14:26:41;8.30;;;4.40;;
62927;SDS011;51070;52.236;-0.892;2023-05-16T14:29:06;8.60;;;4.40;;
62927;SDS011;51070;52.236;-0.892;2023-05-16T14:31:31;9.00;;;4.70;;
62927;SDS011;51070;52.236;-0.892;2023-05-16T14:33:58;10.90;;;4.40;;
62927;SDS011;51070;52.236;-0.892;2023-05-16T14:36:23;6.80;;;4.10;;
62927;SDS011;51070;52.236;-0.892;2023-05-16T14:38:49;12.70;;;5.70;;
62927;SDS011;51070;52.236;-0.892;2023-05-16T14:41:15;12.40;;;4.20;;
62927;SDS011;51070;52.236;-0.892;2023-05-16T14:43:41;10.80;;;5.50;;
62927;SDS011;51070;52.236;-0.892;2023-05-16T14:46:06;10.60;;;5.20;;
62927;SDS011;51070;52.236;-0.892;2023-05-16T14:48:31;10.40;;;4.90;;
62927;SDS011;51070;52.236;-0.892;2023-05-16T14:50:57;10.90;;;4.50;;
62927;SDS011;51070;52.236;-0.892;2023-05-16T14:53:23;8.70;;;4.00;;
62927;SDS011;51070;52.236;-0.892;2023-05-16T14:55:48;9.10;;;4.20;;
62927;SDS011;51070;52.236;-0.892;2023-05-16T14:58:14;10.40;;;5.70;;